Elrama, Pennsylvania
Current Conditions -  °F | °C
As of 11:53 PM on Friday 21 Nov 2014 (Local Time) from KAGC Reporting Station
Clear Clear  
Wind Chill: 11°   Ceiling: Unl
Heat Index: 19°   Visibility: 9mi
Dew Point:   Wind: 6mph
Humidity: 65%   Direction: 160°SSE
Pressure: 30.41"   Gusts: NA
Location:  40.25°N, 79.92°W
Report Text: KAGC 220453Z 16005KT 9SM CLR M07/M13 A3041 RMK AO2 SLP322 T10721128 410281078
Loading
Personal Weather Stations






























Interactive Weather Map New forecast layout! Learn more

10-Day Weather Forecast

Advertisements
Track Severe Weather on mobile